createdAt,value
2014-07-11T12:00:38.108Z,753
2014-07-11T12:00:55.281Z,755
2014-07-11T12:01:13.156Z,755
2014-07-11T12:05:46.119Z,757
2014-07-11T12:06:03.947Z,756
2014-07-11T12:06:22.089Z,757
2014-07-11T12:06:39.183Z,757
2014-07-11T12:06:57.901Z,757
2014-07-11T12:07:16.292Z,755
2014-07-11T12:07:33.560Z,757
2014-07-11T12:07:50.669Z,757
2014-07-11T12:08:09.122Z,755
2014-07-11T12:08:27.609Z,756
2014-07-11T12:08:46.093Z,755
2014-07-11T12:09:03.999Z,755
2014-07-11T12:09:21.187Z,755
2014-07-11T12:09:38.939Z,757
2014-07-11T12:10:02.345Z,754
2014-07-11T12:10:18.907Z,755
2014-07-11T12:10:37.456Z,752
2014-07-11T12:11:10.488Z,754
2014-07-11T12:11:27.691Z,755
2014-07-11T12:11:45.536Z,755
2014-07-11T12:12:03.271Z,753
2014-07-11T12:12:21.052Z,754
2014-07-11T12:12:39.476Z,754
2014-07-11T12:12:56.757Z,754
2014-07-11T12:13:14.460Z,755
2014-07-11T12:13:31.869Z,754
2014-07-11T12:13:49.619Z,754
2014-07-11T12:14:07.384Z,755
2014-07-11T12:14:24.728Z,755
2014-07-11T12:14:42.621Z,754
2014-07-11T12:14:59.933Z,755
2014-07-11T12:15:18.433Z,756
2014-07-11T12:15:36.326Z,756
2014-07-11T12:15:53.513Z,756
2014-07-11T12:16:10.873Z,755
2014-07-11T12:16:28.607Z,755
2014-07-11T12:16:46.171Z,755
2014-07-11T12:17:03.812Z,756
2014-07-11T12:17:20.640Z,755
2014-07-11T12:17:38.408Z,755
2014-07-11T12:17:56.361Z,755
2014-07-11T12:18:14.970Z,756
2014-07-11T12:18:33.580Z,755
2014-07-11T12:18:51.519Z,756
2014-07-11T12:19:10.019Z,755
2014-07-11T12:19:29.379Z,756
2014-07-11T12:19:47.209Z,755
2014-07-11T12:20:04.927Z,756
2014-07-11T12:20:22.084Z,755
2014-07-11T12:20:39.492Z,755
2014-07-11T12:20:57.445Z,756
2014-07-11T12:21:16.414Z,755
2014-07-11T12:21:34.867Z,756
2014-07-11T12:21:52.697Z,754
2014-07-11T12:22:10.510Z,756
2014-07-11T12:22:27.650Z,756
2014-07-11T12:22:45.746Z,756
2014-07-11T12:23:03.683Z,755
2014-07-11T12:23:22.262Z,755
2014-07-11T12:23:40.183Z,757
2014-07-11T12:23:58.232Z,755
2014-07-11T12:24:16.404Z,757
2014-07-11T12:24:33.764Z,757
2014-07-11T12:24:51.812Z,755
2014-07-11T12:25:10.406Z,755
2014-07-11T12:25:59.189Z,756
2014-07-11T12:26:17.143Z,751
2014-07-11T12:26:34.439Z,752
2014-07-11T12:26:50.988Z,754
2014-07-11T12:27:08.145Z,752
2014-07-11T12:27:26.613Z,752
2014-07-11T12:28:14.115Z,752
2014-07-11T12:29:02.789Z,752
2014-07-11T12:29:21.227Z,753
2014-07-11T12:29:39.524Z,754
2014-07-11T12:29:57.931Z,752
2014-07-11T12:30:14.978Z,754
2014-07-11T12:30:33.415Z,752
2014-07-11T12:30:51.806Z,752
2014-07-11T12:31:09.465Z,752
2014-07-11T12:31:27.262Z,752
2014-07-11T12:31:44.996Z,752
2014-07-11T12:32:02.076Z,753
2014-07-11T12:32:19.873Z,752
2014-07-11T12:32:37.576Z,753
2014-07-11T12:32:54.858Z,753
2014-07-11T12:33:12.422Z,752
2014-07-11T12:33:29.438Z,753
2014-07-11T12:33:47.141Z,753
2014-07-11T12:34:04.845Z,752
2014-07-11T12:34:23.345Z,753
2014-07-11T12:34:40.048Z,752
2014-07-11T12:34:57.829Z,752
2014-07-11T12:35:15.598Z,753
2014-07-11T12:35:34.020Z,753
2014-07-11T12:35:51.864Z,752
2014-07-11T12:36:09.459Z,751
2014-07-11T12:36:27.709Z,751
2014-07-11T12:36:45.444Z,753
2014-07-11T12:37:03.819Z,752
2014-07-11T12:37:21.430Z,752
2014-07-11T12:37:39.040Z,751
2014-07-11T12:37:57.274Z,751
2014-07-11T12:38:15.525Z,752
2014-07-11T12:38:33.775Z,752
2014-07-11T12:38:52.009Z,753
2014-07-11T12:39:09.619Z,752
2014-07-11T12:39:27.981Z,751
2014-07-11T12:39:46.215Z,753
2014-07-11T12:40:03.825Z,751
2014-07-11T12:40:21.435Z,751
2014-07-11T12:40:38.420Z,751
2014-07-11T12:40:55.545Z,751
2014-07-11T12:41:12.513Z,751
2014-07-11T12:41:30.766Z,751
2014-07-11T12:41:48.360Z,752
2014-07-11T12:42:05.969Z,752
2014-07-11T12:42:23.581Z,751
2014-07-11T12:42:40.565Z,752
2014-07-11T12:42:58.190Z,750
2014-07-11T12:43:15.925Z,752
2014-07-11T12:43:33.676Z,752
2014-07-11T12:43:50.660Z,750
2014-07-11T12:44:08.894Z,752
2014-07-11T12:44:27.131Z,752
2014-07-11T12:44:45.381Z,750
2014-07-11T12:45:02.990Z,750
2014-07-11T12:45:20.601Z,750
2014-07-11T12:45:38.211Z,750
2014-07-11T12:45:55.820Z,751
2014-07-11T12:46:14.055Z,750
2014-07-11T12:46:32.291Z,750
2014-07-11T12:46:49.900Z,751
2014-07-11T12:47:08.275Z,750
2014-07-11T12:47:25.871Z,750
2014-07-11T12:47:42.996Z,750
2014-07-11T12:48:00.605Z,751
2014-07-11T12:48:18.840Z,751
2014-07-11T12:48:36.436Z,752
2014-07-11T12:48:53.420Z,749
2014-07-11T12:49:11.654Z,749
2014-07-11T12:49:29.891Z,749
2014-07-11T12:49:46.875Z,749
2014-07-11T12:50:05.250Z,749
2014-07-11T12:50:23.485Z,749
2014-07-11T12:50:41.767Z,749
2014-07-11T12:50:59.345Z,751
2014-07-11T12:51:16.954Z,751
2014-07-11T12:51:35.176Z,751
2014-07-11T12:51:53.410Z,750
2014-07-11T12:52:11.020Z,750
2014-07-11T12:52:28.631Z,751
2014-07-11T12:52:46.865Z,751
2014-07-11T12:53:05.100Z,749
2014-07-11T12:53:23.351Z,749
2014-07-11T12:53:40.960Z,749
2014-07-11T12:53:57.929Z,751
2014-07-11T12:54:16.179Z,750
2014-07-11T12:54:34.416Z,751
2014-07-11T12:54:52.651Z,749
2014-07-11T12:55:10.885Z,749
2014-07-11T12:55:28.481Z,749
2014-07-11T12:55:46.715Z,751
2014-07-11T12:56:04.325Z,750
2014-07-11T12:56:21.934Z,749
2014-07-11T12:56:38.919Z,751
2014-07-11T12:56:56.529Z,751
2014-07-11T12:57:14.122Z,749
2014-07-11T12:57:32.500Z,751
2014-07-11T12:57:50.110Z,749
2014-07-11T12:58:07.719Z,750
2014-07-11T12:58:25.329Z,751
2014-07-11T12:58:42.939Z,749
2014-07-11T12:59:00.548Z,749
2014-07-11T12:59:18.783Z,749
2014-07-11T12:59:36.394Z,749
2014-07-11T12:59:54.628Z,749
2014-07-11T13:00:12.238Z,750
2014-07-11T13:00:29.850Z,749
2014-07-11T13:00:47.460Z,749
2014-07-11T13:01:05.069Z,750
2014-07-11T13:01:22.678Z,749
2014-07-11T13:01:40.914Z,749
2014-07-11T13:01:57.898Z,749
2014-07-11T13:02:16.132Z,749
2014-07-11T13:02:34.370Z,751
2014-07-11T13:02:51.354Z,751
2014-07-11T13:03:07.714Z,749
2014-07-11T13:03:25.323Z,750
2014-07-11T13:03:43.558Z,749
2014-07-11T13:04:01.168Z,749
2014-07-11T13:04:18.152Z,749
2014-07-11T13:04:35.138Z,750
2014-07-11T13:04:53.498Z,749
2014-07-11T13:05:10.482Z,749
2014-07-11T13:05:28.717Z,749
2014-07-11T13:05:45.703Z,749
2014-07-11T13:06:02.687Z,750
2014-07-11T13:06:20.281Z,749
2014-07-11T13:06:37.908Z,750
2014-07-11T13:06:56.142Z,749
2014-07-11T13:07:13.736Z,749
2014-07-11T13:07:31.971Z,750
2014-07-11T13:07:49.582Z,750
2014-07-11T13:08:07.191Z,750
2014-07-11T13:08:24.816Z,749
2014-07-11T13:08:41.803Z,749
2014-07-11T13:09:00.053Z,749
2014-07-11T13:09:17.662Z,749
2014-07-11T13:09:35.271Z,749
2014-07-11T13:09:53.008Z,749
2014-07-11T13:10:15.195Z,751
2014-07-11T13:10:32.805Z,750
2014-07-11T13:10:51.041Z,750
2014-07-11T13:11:08.025Z,750
2014-07-11T13:11:26.260Z,750
2014-07-11T13:11:43.870Z,750
2014-07-11T13:12:01.480Z,750
2014-07-11T13:12:19.089Z,750
2014-07-11T13:12:37.323Z,750
2014-07-11T13:12:54.935Z,750
2014-07-11T13:13:11.903Z,750
2014-07-11T13:13:30.138Z,750
2014-07-11T13:13:47.750Z,750
2014-07-11T13:14:05.360Z,750
2014-07-11T13:14:22.969Z,750
2014-07-11T13:14:40.578Z,750
2014-07-11T13:14:58.815Z,750
2014-07-11T13:15:16.408Z,750
2014-07-11T13:15:34.018Z,750
2014-07-11T13:15:51.003Z,750
2014-07-11T13:16:08.613Z,751
2014-07-11T13:16:26.222Z,751
2014-07-11T13:16:43.831Z,750
2014-07-11T13:17:02.068Z,750
2014-07-11T13:17:19.677Z,751
2014-07-11T13:17:37.271Z,750
2014-07-11T13:17:54.882Z,751
2014-07-11T13:18:13.117Z,750
2014-07-11T13:18:31.367Z,752
2014-07-11T13:18:47.929Z,750
2014-07-11T13:19:06.400Z,751
2014-07-11T13:19:24.165Z,752
2014-07-11T13:20:12.918Z,752
2014-07-11T13:20:30.747Z,752
2014-07-11T13:20:49.200Z,752
2014-07-11T13:21:21.544Z,750
2014-07-11T13:21:39.248Z,750
2014-07-11T13:21:56.279Z,750
2014-07-11T13:22:13.344Z,750
2014-07-11T13:22:31.079Z,750
2014-07-11T13:22:49.532Z,750
2014-07-11T13:23:07.908Z,750
2014-07-11T13:23:24.314Z,750
2014-07-11T13:23:41.970Z,750
2014-07-11T13:24:00.345Z,750
2014-07-11T13:24:16.754Z,750
2014-07-11T13:24:34.457Z,750
2014-07-11T13:24:52.175Z,750
2014-07-11T13:25:09.896Z,750
2014-07-11T13:25:27.631Z,750
2014-07-11T13:25:45.334Z,750
2014-07-11T13:26:03.209Z,750
2014-07-11T13:26:20.898Z,750
2014-07-11T13:26:38.648Z,751
2014-07-11T13:26:55.164Z,750
2014-07-11T13:27:12.931Z,750
2014-07-11T13:27:29.588Z,750
2014-07-11T13:27:47.275Z,750
2014-07-11T13:28:04.291Z,750
2014-07-11T13:28:22.153Z,750
2014-07-11T13:28:40.434Z,750
2014-07-11T13:28:57.731Z,750
2014-07-11T13:29:15.202Z,750
2014-07-11T13:29:33.030Z,750
2014-07-11T13:29:50.811Z,751
2014-07-11T13:30:09.265Z,750
2014-07-11T13:30:26.719Z,750
2014-07-11T13:30:45.234Z,750
2014-07-11T13:31:03.437Z,751
2014-07-11T13:31:21.814Z,750
2014-07-11T13:31:39.580Z,750
2014-07-11T13:31:56.877Z,751
2014-07-11T13:32:14.316Z,750
2014-07-11T13:32:32.473Z,750
2014-07-11T13:32:49.926Z,750
2014-07-11T13:33:08.426Z,751
2014-07-11T13:33:27.053Z,750
2014-07-11T13:33:45.522Z,750
2014-07-11T13:34:03.459Z,751
2014-07-11T13:34:21.836Z,751
2014-07-11T13:34:39.617Z,751
2014-07-11T13:34:57.570Z,750
2014-07-11T13:35:15.383Z,750
2014-07-11T13:35:33.104Z,751
2014-07-11T13:35:51.494Z,750
2014-07-11T13:36:09.432Z,751
2014-07-11T13:36:27.996Z,750
2014-07-11T13:36:46.324Z,751
2014-07-11T13:37:02.699Z,750
2014-07-11T13:37:21.092Z,750
2014-07-11T13:37:39.561Z,750
2014-07-11T13:37:56.795Z,750
2014-07-11T13:38:14.545Z,750
2014-07-11T13:38:31.563Z,750
2014-07-11T13:38:48.657Z,750
2014-07-11T13:39:06.313Z,750
2014-07-11T13:39:24.204Z,750
2014-07-11T13:39:41.267Z,750
2014-07-11T13:39:58.579Z,750
2014-07-11T13:40:16.954Z,751
2014-07-11T13:40:35.066Z,750
2014-07-11T13:40:52.847Z,750
2014-07-11T13:41:11.160Z,750
2014-07-11T13:41:28.725Z,750
2014-07-11T13:41:46.584Z,750
2014-07-11T13:42:04.991Z,750
2014-07-11T13:42:23.446Z,750
2014-07-11T13:42:41.211Z,750
2014-07-11T13:42:59.930Z,750
2014-07-11T13:43:18.352Z,750
2014-07-11T13:43:36.307Z,749
2014-07-11T13:43:54.292Z,749
2014-07-11T13:44:10.870Z,750
2014-07-11T13:44:28.075Z,749
2014-07-11T13:45:30.185Z,660
2014-07-11T13:45:48.654Z,743
2014-07-11T13:46:06.435Z,745
2014-07-11T13:46:24.654Z,750
2014-07-11T13:46:42.032Z,772
2014-07-11T13:47:00.938Z,780
2014-07-11T13:47:18.673Z,780
2014-07-11T13:47:36.345Z,780
2014-07-11T13:47:54.127Z,780
2014-07-11T13:48:11.830Z,780
2014-07-11T13:48:30.130Z,780
2014-07-11T13:48:47.817Z,780
2014-07-11T13:49:05.536Z,780
2014-07-11T13:49:23.833Z,780
2014-07-11T13:49:41.646Z,780
2014-07-11T13:49:59.459Z,780
2014-07-11T13:50:17.803Z,780
2014-07-11T13:50:35.556Z,780
2014-07-11T13:50:53.399Z,780
2014-07-11T13:51:11.696Z,780
2014-07-11T13:51:29.431Z,780
2014-07-11T13:51:47.760Z,780
2014-07-11T13:52:05.525Z,780
2014-07-11T13:52:23.932Z,780
2014-07-11T13:52:40.950Z,780
2014-07-11T13:52:58.153Z,780
2014-07-11T13:53:16.622Z,780
2014-07-11T13:53:34.310Z,780
2014-07-11T13:53:51.498Z,780
2014-07-11T13:54:09.232Z,780
2014-07-11T13:54:27.436Z,780
2014-07-11T13:54:46.219Z,780
2014-07-11T13:55:02.750Z,780
2014-07-11T13:55:19.938Z,780
2014-07-11T13:56:08.316Z,780
2014-07-11T13:56:25.909Z,780
2014-07-11T13:56:43.567Z,780
2014-07-11T13:57:01.270Z,780
2014-07-11T13:57:19.520Z,765
2014-07-11T13:57:36.160Z,759
2014-07-11T13:57:54.569Z,758
2014-07-11T13:58:11.709Z,761
2014-07-11T13:58:28.740Z,764
2014-07-11T13:58:45.180Z,780
2014-07-11T13:59:02.867Z,780
2014-07-11T13:59:20.774Z,780
2014-07-11T13:59:37.930Z,780
2014-07-11T13:59:55.979Z,780
2014-07-11T14:00:13.807Z,780
2014-07-11T14:00:31.541Z,780
2014-07-11T14:00:48.949Z,763
2014-07-11T14:01:06.777Z,756
2014-07-11T14:01:23.761Z,751
2014-07-11T14:01:41.138Z,747
2014-07-11T14:01:58.372Z,746
2014-07-11T14:02:15.997Z,745
2014-07-11T14:02:33.857Z,743
2014-07-11T14:02:50.516Z,743
2014-07-11T14:03:08.110Z,746
2014-07-11T14:03:25.735Z,780
2014-07-11T14:03:42.720Z,780
2014-07-11T14:03:59.720Z,780
2014-07-11T14:04:17.330Z,780
2014-07-11T14:04:34.408Z,780
2014-07-11T14:04:51.410Z,780
2014-07-11T14:05:09.019Z,779
2014-07-11T14:05:25.519Z,780
2014-07-11T14:05:42.019Z,780
2014-07-11T14:05:59.802Z,780
2014-07-11T14:06:16.802Z,780
2014-07-11T14:06:34.412Z,780
2014-07-11T14:06:50.992Z,780
2014-07-11T14:07:08.164Z,780
2014-07-11T14:07:25.961Z,780
2014-07-11T14:07:42.914Z,780
2014-07-11T14:07:59.947Z,780
2014-07-11T14:08:17.088Z,780
2014-07-11T14:08:34.213Z,780
2014-07-11T14:08:52.575Z,780
2014-07-11T14:09:10.216Z,780
2014-07-11T14:09:27.278Z,780
2014-07-11T14:09:45.028Z,780
2014-07-11T14:10:03.342Z,780
2014-07-11T14:10:21.951Z,773
2014-07-11T14:10:39.092Z,755
2014-07-11T14:10:56.141Z,759
2014-07-11T14:11:14.235Z,756
2014-07-11T14:11:32.266Z,759
2014-07-11T14:11:50.548Z,780
2014-07-11T14:12:07.658Z,780
2014-07-11T14:12:24.627Z,780
2014-07-11T14:12:42.892Z,780
2014-07-11T14:13:00.770Z,780
2014-07-11T14:13:17.880Z,780
2014-07-11T14:13:35.645Z,780
2014-07-11T14:13:52.661Z,780
2014-07-11T14:14:09.818Z,780
2014-07-11T14:14:27.006Z,780
2014-07-11T14:14:45.053Z,780
2014-07-11T14:15:02.133Z,780
2014-07-11T14:15:19.461Z,780
2014-07-11T14:15:37.164Z,780
2014-07-11T14:15:54.289Z,780
2014-07-11T14:16:12.260Z,779
2014-07-11T14:16:30.588Z,780
2014-07-11T14:16:48.275Z,780
2014-07-11T14:17:06.809Z,780
2014-07-11T14:17:24.434Z,780
2014-07-11T14:17:43.074Z,780
2014-07-11T14:18:01.092Z,780
2014-07-11T14:18:19.701Z,780
2014-07-11T14:18:37.686Z,780
2014-07-11T14:18:56.014Z,780
2014-07-11T14:19:14.297Z,780
2014-07-11T14:19:32.391Z,780
2014-07-11T14:19:50.578Z,780
2014-07-11T14:20:08.143Z,780
2014-07-11T14:20:27.174Z,780
2014-07-11T14:20:45.549Z,780
2014-07-11T14:21:03.050Z,780
2014-07-11T14:21:20.347Z,780
2014-07-11T14:21:38.722Z,780
2014-07-11T14:21:56.925Z,780
2014-07-11T14:22:13.600Z,780
2014-07-11T14:22:31.678Z,780
2014-07-11T14:22:49.912Z,780
2014-07-11T14:23:08.149Z,780
2014-07-11T14:23:25.758Z,780
2014-07-11T14:23:43.993Z,780
2014-07-11T14:24:00.977Z,780
2014-07-11T14:24:17.948Z,780
2014-07-11T14:24:36.198Z,780
2014-07-11T14:24:53.807Z,780
2014-07-11T14:25:11.403Z,780
2014-07-11T14:25:29.653Z,780
2014-07-11T14:25:47.262Z,780
2014-07-11T14:26:05.497Z,780
2014-07-11T14:26:22.467Z,780
2014-07-11T14:26:40.092Z,780
2014-07-11T14:26:57.186Z,780
2014-07-11T14:27:15.624Z,780
2014-07-11T14:27:33.735Z,780
2014-07-11T14:27:52.766Z,780
2014-07-11T14:28:11.735Z,780
2014-07-11T14:28:30.440Z,780
2014-07-11T14:28:48.549Z,780
2014-07-11T14:29:07.034Z,780
2014-07-11T14:29:25.614Z,780
2014-07-11T14:29:44.395Z,780
2014-07-11T14:30:02.286Z,780
2014-07-11T14:30:19.848Z,780
2014-07-11T14:30:38.194Z,780
2014-07-11T14:30:56.225Z,780
2014-07-11T14:31:14.538Z,780
2014-07-11T14:31:32.742Z,780
2014-07-11T14:31:50.148Z,780
2014-07-11T14:32:08.383Z,765
2014-07-11T14:32:26.617Z,676
2014-07-11T14:32:44.854Z,763
2014-07-11T14:33:03.151Z,780
2014-07-11T14:33:21.448Z,780
2014-07-11T14:33:38.528Z,780
2014-07-11T14:33:54.997Z,780
2014-07-11T14:34:13.231Z,780
2014-07-11T14:34:30.843Z,780
2014-07-11T14:34:48.483Z,780
2014-07-11T14:35:06.093Z,780
2014-07-11T14:35:23.702Z,780
2014-07-11T14:35:41.313Z,780
2014-07-11T14:35:58.923Z,780
2014-07-11T14:36:15.892Z,780
2014-07-11T14:36:34.142Z,780
2014-07-11T14:36:52.722Z,780
2014-07-11T14:37:10.987Z,780
2014-07-11T14:37:28.706Z,780
2014-07-11T14:37:46.958Z,780
2014-07-11T14:38:04.833Z,780
2014-07-11T14:38:23.442Z,780
2014-07-11T14:38:40.615Z,780
2014-07-11T14:38:58.975Z,780
2014-07-11T14:39:17.928Z,780
2014-07-11T14:39:35.475Z,780
2014-07-11T14:39:53.586Z,780
2014-07-11T14:40:10.570Z,780
2014-07-11T14:40:28.524Z,780
2014-07-11T14:40:47.213Z,779
2014-07-11T14:41:04.963Z,780
2014-07-11T14:41:22.744Z,780
2014-07-11T14:41:41.260Z,780
2014-07-11T14:41:59.654Z,780
2014-07-11T14:42:17.279Z,780
2014-07-11T14:42:35.044Z,780
2014-07-11T14:42:51.406Z,780
2014-07-11T14:43:09.640Z,780
2014-07-11T14:43:27.874Z,780
2014-07-11T14:43:45.484Z,780
2014-07-11T14:44:06.111Z,780
2014-07-11T14:44:23.720Z,780
2014-07-11T14:44:41.314Z,780
2014-07-11T14:44:59.627Z,780
2014-07-11T14:45:17.284Z,780
2014-07-11T14:45:35.580Z,780
2014-07-11T14:45:53.412Z,780
2014-07-11T14:46:11.615Z,780
2014-07-11T14:46:29.349Z,780
2014-07-11T14:46:47.646Z,780
2014-07-11T14:47:04.773Z,780
2014-07-11T14:47:23.601Z,780
2014-07-11T14:47:41.929Z,780
2014-07-11T14:48:00.900Z,780
2014-07-11T14:48:18.759Z,780
2014-07-11T14:48:37.275Z,780
2014-07-11T14:48:55.573Z,780
2014-07-11T14:49:13.682Z,780
2014-07-11T14:49:32.448Z,780
2014-07-11T14:49:51.057Z,780
2014-07-11T14:50:10.075Z,780
2014-07-11T14:50:28.684Z,780
2014-07-11T14:50:46.747Z,780
2014-07-11T14:51:05.062Z,779
2014-07-11T14:51:22.328Z,780
2014-07-11T14:51:40.562Z,780
2014-07-11T14:51:58.828Z,780
2014-07-11T14:52:16.595Z,780
2014-07-11T14:52:33.580Z,780
2014-07-11T14:52:51.220Z,780
2014-07-11T14:53:07.660Z,780
2014-07-11T14:53:25.910Z,780
2014-07-11T14:53:44.191Z,780
2014-07-11T14:54:02.551Z,780
2014-07-11T14:54:19.536Z,780
2014-07-11T14:54:37.770Z,780
2014-07-11T14:54:56.005Z,779
2014-07-11T14:55:13.694Z,780
2014-07-11T14:55:31.913Z,780
2014-07-11T14:55:48.304Z,780
2014-07-11T14:56:06.538Z,780
2014-07-11T14:56:24.852Z,780
2014-07-11T14:56:43.477Z,780
2014-07-11T14:57:01.524Z,780
2014-07-11T14:57:20.245Z,780
2014-07-11T14:57:38.354Z,780
2014-07-11T14:57:57.261Z,780
2014-07-11T14:58:16.388Z,780
2014-07-11T14:58:34.700Z,780
2014-07-11T14:58:53.606Z,780
2014-07-11T14:59:11.763Z,780
2014-07-11T14:59:30.765Z,780
2014-07-11T14:59:48.968Z,780
2014-07-11T15:00:07.374Z,780
2014-07-11T15:00:26.579Z,780
2014-07-11T15:00:43.095Z,780
2014-07-11T15:01:01.032Z,780
2014-07-11T15:01:18.485Z,780
2014-07-11T15:01:36.707Z,780
2014-07-11T15:01:55.223Z,780
2014-07-11T15:02:13.457Z,780
2014-07-11T15:02:31.209Z,780
2014-07-11T15:02:48.897Z,780
2014-07-11T15:03:06.506Z,780
2014-07-11T15:03:24.147Z,780
2014-07-11T15:03:41.820Z,780
2014-07-11T15:03:59.554Z,780
2014-07-11T15:04:20.898Z,780
2014-07-11T15:04:39.243Z,780
2014-07-11T15:04:57.618Z,780
2014-07-11T15:05:14.587Z,780
2014-07-11T15:05:32.822Z,780
2014-07-11T15:05:50.434Z,780
2014-07-11T15:06:08.746Z,780
2014-07-11T15:06:26.465Z,780
2014-07-11T15:06:44.185Z,780
2014-07-11T15:07:02.529Z,780
2014-07-11T15:07:20.810Z,780
2014-07-11T15:07:38.406Z,780
2014-07-11T15:07:55.718Z,780
2014-07-11T15:08:14.703Z,780
2014-07-11T15:08:32.609Z,780
2014-07-11T15:08:51.173Z,780
2014-07-11T15:09:10.330Z,780
2014-07-11T15:09:29.470Z,780
2014-07-11T15:09:47.738Z,780
2014-07-11T15:10:06.144Z,780
2014-07-11T15:10:24.253Z,780
2014-07-11T15:10:43.052Z,780
2014-07-11T15:11:01.349Z,780
2014-07-11T15:11:19.818Z,780
2014-07-11T15:11:38.929Z,780
2014-07-11T15:11:57.242Z,780
2014-07-11T15:12:15.882Z,780
2014-07-11T15:12:33.007Z,780
2014-07-11T15:12:51.259Z,780
2014-07-11T15:13:09.525Z,780
2014-07-11T15:13:27.134Z,780
2014-07-11T15:13:45.370Z,780
2014-07-11T15:14:03.604Z,780
2014-07-11T15:14:21.214Z,780
2014-07-11T15:14:39.451Z,780
2014-07-11T15:14:57.810Z,780
2014-07-11T15:15:16.092Z,780
2014-07-11T15:15:34.342Z,780
2014-07-11T15:15:51.953Z,780
2014-07-11T15:16:10.187Z,779
2014-07-11T15:16:27.797Z,780
2014-07-11T15:16:48.486Z,780
2014-07-11T15:17:05.486Z,780
2014-07-11T15:17:23.846Z,780
2014-07-11T15:17:40.955Z,780
2014-07-11T15:17:59.394Z,780
2014-07-11T15:18:17.176Z,780
2014-07-11T15:18:34.894Z,780
2014-07-11T15:18:52.707Z,780
2014-07-11T15:19:10.006Z,780
2014-07-11T15:19:28.271Z,780
2014-07-11T15:19:46.553Z,780
2014-07-11T15:20:04.367Z,780
2014-07-11T15:20:22.773Z,779
2014-07-11T15:20:41.195Z,780
2014-07-11T15:20:58.900Z,780
2014-07-11T15:21:17.213Z,780
2014-07-11T15:21:34.963Z,780
2014-07-11T15:21:52.604Z,780
2014-07-11T15:22:09.559Z,780
2014-07-11T15:22:27.793Z,780
2014-07-11T15:22:44.777Z,780
2014-07-11T15:23:01.746Z,780
2014-07-11T15:23:19.983Z,780
2014-07-11T15:23:37.592Z,780
2014-07-11T15:23:55.217Z,780
2014-07-11T15:24:11.594Z,780
2014-07-11T15:24:29.828Z,780
2014-07-11T15:24:48.063Z,780
2014-07-11T15:25:06.299Z,780
2014-07-11T15:25:24.533Z,780
2014-07-11T15:25:42.768Z,780
2014-07-11T15:26:00.377Z,691
2014-07-11T15:26:18.614Z,683
2014-07-11T15:26:36.848Z,780
2014-07-11T15:26:55.082Z,780
2014-07-11T15:27:12.694Z,780
2014-07-11T15:27:30.444Z,780
2014-07-11T15:27:48.053Z,780
2014-07-11T15:28:05.662Z,780
2014-07-11T15:28:23.258Z,780
2014-07-11T15:28:40.868Z,780
2014-07-11T15:28:58.477Z,780
2014-07-11T15:29:16.088Z,753
2014-07-11T15:29:34.448Z,780
2014-07-11T15:29:52.057Z,780
2014-07-11T15:30:10.323Z,780
2014-07-11T15:30:28.574Z,780
2014-07-11T15:30:46.183Z,780
2014-07-11T15:31:03.167Z,780
2014-07-11T15:31:21.419Z,780
2014-07-11T15:31:39.653Z,780
2014-07-11T15:31:57.888Z,657
2014-07-11T15:32:14.913Z,696
2014-07-11T15:32:33.147Z,780
2014-07-11T15:32:51.382Z,780
2014-07-11T15:33:09.741Z,780
2014-07-11T15:33:26.768Z,780
2014-07-11T15:33:44.378Z,780
2014-07-11T15:34:01.987Z,780
2014-07-11T15:34:20.264Z,780
2014-07-11T15:34:38.498Z,647
2014-07-11T15:34:55.482Z,780
2014-07-11T15:35:13.717Z,711
2014-07-11T15:35:31.384Z,643
2014-07-11T15:35:48.977Z,607
2014-07-11T15:36:05.962Z,607
2014-07-11T15:36:24.227Z,606
2014-07-11T15:36:41.837Z,607
2014-07-11T15:37:00.071Z,609
2014-07-11T15:37:17.680Z,610
2014-07-11T15:37:35.307Z,614
2014-07-11T15:37:53.541Z,691
2014-07-11T15:38:11.150Z,780
2014-07-11T15:38:28.808Z,780
2014-07-11T15:38:46.402Z,780
2014-07-11T15:39:04.667Z,780
2014-07-11T15:39:22.294Z,780
2014-07-11T15:39:39.903Z,780
2014-07-11T15:39:57.513Z,780
2014-07-11T15:40:14.497Z,780
2014-07-11T15:40:32.123Z,780
2014-07-11T15:40:49.108Z,780
2014-07-11T15:41:06.701Z,780
2014-07-11T15:41:24.323Z,780
2014-07-11T15:41:41.932Z,780
2014-07-11T15:41:59.526Z,780
2014-07-11T15:42:17.760Z,780
2014-07-11T15:42:36.141Z,780
2014-07-11T15:42:54.376Z,780
2014-07-11T15:43:12.610Z,780
2014-07-11T15:43:30.851Z,780
2014-07-11T15:43:49.086Z,780
2014-07-11T15:44:06.695Z,780
2014-07-11T15:44:23.680Z,780
2014-07-11T15:44:41.922Z,780
2014-07-11T15:44:59.656Z,780
2014-07-11T15:45:17.281Z,780
2014-07-11T15:45:35.522Z,780
2014-07-11T15:45:52.490Z,780
2014-07-11T15:46:10.725Z,780
2014-07-11T15:46:28.340Z,780
2014-07-11T15:46:46.575Z,780
2014-07-11T15:47:04.200Z,780
2014-07-11T15:47:21.809Z,780
2014-07-11T15:47:40.172Z,780
2014-07-11T15:47:57.782Z,780
2014-07-11T15:48:14.766Z,780
2014-07-11T15:48:33.003Z,780
2014-07-11T15:48:51.238Z,780
2014-07-11T15:49:09.472Z,780
2014-07-11T15:49:27.082Z,780
2014-07-11T15:49:44.695Z,780
2014-07-11T15:50:01.679Z,780
2014-07-11T15:50:19.273Z,780
2014-07-11T15:50:37.527Z,780
2014-07-11T15:50:55.121Z,780
2014-07-11T15:51:13.355Z,780
2014-07-11T15:51:30.980Z,780
2014-07-11T15:51:47.953Z,780
2014-07-11T15:52:06.187Z,780
2014-07-11T15:52:24.422Z,780
2014-07-11T15:52:42.050Z,780
2014-07-11T15:52:59.659Z,780
2014-07-11T15:53:17.878Z,780
2014-07-11T15:53:36.112Z,780
2014-07-11T15:53:54.364Z,780
2014-07-11T15:54:12.599Z,780
2014-07-11T15:54:30.208Z,780
2014-07-11T15:54:48.445Z,780
2014-07-11T15:55:06.680Z,780
2014-07-11T15:55:24.898Z,780
2014-07-11T15:55:43.150Z,780
2014-07-11T15:56:01.385Z,780
2014-07-11T15:56:19.135Z,780
2014-07-11T15:56:36.104Z,780
2014-07-11T15:56:53.716Z,780
2014-07-11T15:57:11.950Z,780
2014-07-11T15:57:30.200Z,780
2014-07-11T15:57:48.437Z,780
2014-07-11T15:58:06.671Z,780
2014-07-11T15:58:25.030Z,780
2014-07-11T15:58:42.015Z,780
2014-07-11T15:58:59.626Z,780
2014-07-11T15:59:17.236Z,780
2014-07-11T15:59:34.829Z,780
2014-07-11T15:59:51.814Z,780
2014-07-11T16:00:10.081Z,780
2014-07-11T16:00:27.691Z,780
2014-07-11T16:00:45.300Z,780
2014-07-11T16:01:03.534Z,779
2014-07-11T16:01:21.131Z,780
2014-07-11T16:01:38.741Z,780
2014-07-11T16:01:56.975Z,780
2014-07-11T16:02:15.351Z,780
2014-07-11T16:02:32.960Z,780
2014-07-11T16:02:51.210Z,780
2014-07-11T16:03:08.820Z,780
2014-07-11T16:03:27.056Z,780
2014-07-11T16:03:44.665Z,733
2014-07-11T16:04:01.650Z,780
2014-07-11T16:04:19.246Z,780
2014-07-11T16:04:36.996Z,780
2014-07-11T16:04:55.230Z,780
2014-07-11T16:05:12.855Z,780
2014-07-11T16:05:29.841Z,780
2014-07-11T16:05:47.451Z,780
2014-07-11T16:06:05.185Z,780
2014-07-11T16:06:22.796Z,780
2014-07-11T16:06:41.031Z,780
2014-07-11T16:06:58.625Z,780
2014-07-11T16:07:16.234Z,780
2014-07-11T16:07:34.470Z,779
2014-07-11T16:07:52.720Z,780
2014-07-11T16:08:10.955Z,780
2014-07-11T16:08:27.925Z,779
2014-07-11T16:08:46.175Z,780
2014-07-11T16:09:03.785Z,780
2014-07-11T16:09:22.019Z,779
2014-07-11T16:09:40.256Z,780
2014-07-11T16:09:56.599Z,780
2014-07-11T16:10:14.209Z,780
2014-07-11T16:10:31.820Z,779
2014-07-11T16:10:50.054Z,780
2014-07-11T16:11:07.648Z,780
2014-07-11T16:11:25.898Z,779
2014-07-11T16:11:42.869Z,780
2014-07-11T16:12:01.103Z,780
2014-07-11T16:12:18.728Z,780
2014-07-11T16:12:36.980Z,780
2014-07-11T16:12:53.949Z,780
2014-07-11T16:13:12.183Z,780
2014-07-11T16:13:29.793Z,779
2014-07-11T16:13:48.045Z,780
2014-07-11T16:14:06.279Z,779
2014-07-11T16:14:24.514Z,780